createdAt,value
2017-11-12T00:00:14.816Z,10.80
2017-11-12T00:05:17.953Z,10.50
2017-11-12T00:10:20.356Z,12.03
2017-11-12T00:15:23.491Z,11.30
2017-11-12T00:20:26.594Z,11.43
2017-11-12T00:25:29.059Z,10.37
2017-11-12T00:30:31.469Z,10.00
2017-11-12T00:35:33.751Z,10.30
2017-11-12T00:40:36.125Z,9.87
2017-11-12T00:45:38.562Z,8.70
2017-11-12T00:50:40.929Z,8.87
2017-11-12T00:55:42.655Z,8.97
2017-11-12T01:00:45.050Z,9.03
2017-11-12T01:05:47.377Z,7.50
2017-11-12T01:10:49.524Z,7.70
2017-11-12T01:15:52.004Z,7.70
2017-11-12T01:20:54.435Z,7.10
2017-11-12T01:25:56.792Z,5.90
2017-11-12T01:30:59.256Z,7.10
2017-11-12T01:36:01.642Z,6.13
2017-11-12T01:41:03.987Z,5.73
2017-11-12T01:46:06.158Z,5.53
2017-11-12T01:51:08.296Z,6.80
2017-11-12T01:56:10.400Z,7.80
2017-11-12T02:01:12.882Z,8.00
2017-11-12T02:06:15.392Z,9.53
2017-11-12T02:11:17.833Z,10.30
2017-11-12T02:16:20.310Z,12.13
2017-11-12T02:21:23.605Z,11.00
2017-11-12T02:26:26.052Z,11.70
2017-11-12T02:31:29.317Z,12.43
2017-11-12T02:36:31.885Z,11.03
2017-11-12T02:41:34.494Z,11.63
2017-11-12T02:46:36.688Z,13.83
2017-11-12T02:51:39.207Z,13.73
2017-11-12T02:56:41.816Z,14.13
2017-11-12T03:01:44.250Z,13.83
2017-11-12T03:06:46.747Z,13.70
2017-11-12T03:11:49.229Z,16.40
2017-11-12T03:16:52.437Z,14.80
2017-11-12T03:21:54.160Z,16.47
2017-11-12T03:26:56.656Z,17.80
2017-11-12T03:31:59.097Z,17.67
2017-11-12T03:37:01.509Z,20.70
2017-11-12T03:42:04.644Z,21.70
2017-11-12T03:47:07.813Z,22.00
2017-11-12T03:52:10.364Z,22.20
2017-11-12T03:57:12.079Z,19.57
2017-11-12T04:02:14.525Z,20.50
2017-11-12T04:07:16.209Z,22.57
2017-11-12T04:12:18.648Z,24.10
2017-11-12T04:17:20.335Z,24.17
2017-11-12T04:22:22.030Z,20.90
2017-11-12T04:27:23.696Z,22.37
2017-11-12T04:32:25.410Z,23.03
2017-11-12T04:37:27.852Z,21.80
2017-11-12T04:42:35.762Z,22.30
2017-11-12T04:47:39.260Z,22.37
2017-11-12T04:52:40.928Z,22.20
2017-11-12T04:57:42.638Z,22.40
2017-11-12T05:02:44.408Z,22.30
2017-11-12T05:07:47.698Z,24.33
2017-11-12T05:12:49.678Z,24.47
2017-11-12T05:17:55.507Z,22.57
2017-11-12T05:22:59.336Z,22.83
2017-11-12T05:28:01.724Z,26.30
2017-11-12T05:33:03.464Z,25.70
2017-11-12T05:38:06.212Z,26.87
2017-11-12T05:43:13.043Z,25.60
2017-11-12T05:48:19.511Z,25.50
2017-11-12T05:53:25.990Z,24.70
2017-11-12T05:58:28.660Z,25.77
2017-11-12T06:03:31.274Z,24.10
2017-11-12T06:08:33.482Z,23.90
2017-11-12T06:13:35.746Z,24.37
2017-11-12T06:18:41.133Z,24.83
2017-11-12T06:23:43.937Z,23.63
2017-11-12T06:28:45.678Z,24.37
2017-11-12T06:33:47.369Z,24.50
2017-11-12T06:38:49.055Z,22.53
2017-11-12T06:43:50.751Z,24.00
2017-11-12T06:48:52.433Z,25.03
2017-11-12T06:53:54.870Z,25.43
2017-11-12T06:58:57.467Z,26.67
2017-11-12T07:04:00.296Z,25.40
2017-11-12T07:09:02.036Z,25.07
2017-11-12T07:14:03.743Z,25.67
2017-11-12T07:19:05.467Z,23.97
2017-11-12T07:24:07.975Z,23.90
2017-11-12T07:29:09.893Z,23.90
2017-11-12T07:34:12.315Z,22.00
2017-11-12T07:39:14.749Z,23.50
2017-11-12T07:44:16.473Z,23.97
2017-11-12T07:49:18.242Z,25.00
2017-11-12T07:54:21.303Z,25.57
2017-11-12T07:59:23.132Z,26.70
2017-11-12T08:04:25.232Z,28.07
2017-11-12T08:09:27.165Z,26.93
2017-11-12T08:14:29.609Z,28.90
2017-11-12T08:19:31.314Z,30.73
2017-11-12T08:24:33.026Z,32.80
2017-11-12T08:29:34.785Z,33.50
2017-11-12T08:34:36.484Z,32.47
2017-11-12T08:39:38.956Z,32.20
2017-11-12T08:44:40.959Z,34.07
2017-11-12T08:49:42.778Z,31.47
2017-11-12T08:54:45.705Z,34.50
2017-11-12T08:59:47.548Z,33.80
2017-11-12T09:04:49.366Z,32.57
2017-11-12T09:09:53.268Z,34.70
2017-11-12T09:14:55.874Z,35.07
2017-11-12T09:19:57.637Z,35.93
2017-11-12T09:24:59.361Z,32.33
2017-11-12T09:30:01.085Z,33.53
2017-11-12T09:35:02.858Z,32.67
2017-11-12T09:40:04.568Z,31.23
2017-11-12T09:45:06.275Z,31.07
2017-11-12T09:50:07.995Z,29.13
2017-11-12T09:55:10.458Z,28.60
2017-11-12T10:00:12.249Z,27.13
2017-11-12T10:05:13.996Z,25.10
2017-11-12T10:10:16.607Z,23.47
2017-11-12T10:15:18.284Z,24.20
2017-11-12T10:20:19.999Z,22.00
2017-11-12T10:25:21.698Z,21.07
2017-11-12T10:30:24.112Z,21.00
2017-11-12T10:35:25.960Z,22.20
2017-11-12T10:40:27.657Z,21.10
2017-11-12T10:45:29.817Z,20.97
2017-11-12T10:50:31.506Z,19.90
2017-11-12T10:55:33.233Z,20.83
2017-11-12T11:00:39.746Z,19.83
2017-11-12T11:05:43.047Z,22.10
2017-11-12T11:10:44.711Z,18.97
2017-11-12T11:15:46.427Z,20.77
2017-11-12T11:20:48.124Z,20.97
2017-11-12T11:25:50.716Z,19.20
2017-11-12T11:30:52.517Z,16.13
2017-11-12T11:35:54.299Z,16.17
2017-11-12T11:40:56.003Z,14.60
2017-11-12T11:45:58.428Z,13.90
2017-11-12T11:51:00.184Z,13.80
2017-11-12T11:56:01.932Z,14.37
2017-11-12T12:01:03.738Z,13.37
2017-11-12T12:06:05.437Z,15.13
2017-11-12T12:11:07.127Z,15.40
2017-11-12T12:16:08.806Z,17.33
2017-11-12T12:21:11.235Z,15.30
2017-11-12T12:26:12.923Z,16.97
2017-11-12T12:31:14.599Z,17.40
2017-11-12T12:36:16.300Z,18.00
2017-11-12T12:41:18.004Z,19.17
2017-11-12T12:46:19.735Z,20.03
2017-11-12T12:51:21.439Z,21.37
2017-11-12T12:56:23.133Z,22.03
2017-11-12T13:01:24.824Z,22.30
2017-11-12T13:06:26.586Z,22.00
2017-11-12T13:11:28.386Z,22.43
2017-11-12T13:16:30.176Z,23.10
2017-11-12T13:21:32.716Z,18.87
2017-11-12T13:26:36.186Z,18.17
2017-11-12T13:31:38.088Z,16.60
2017-11-12T13:36:39.831Z,16.03
2017-11-12T13:41:41.541Z,16.97
2017-11-12T13:46:43.332Z,15.10
2017-11-12T13:51:45.073Z,13.63
2017-11-12T13:56:46.783Z,12.93
2017-11-12T14:01:48.461Z,14.80
2017-11-12T14:06:50.882Z,13.50
2017-11-12T14:11:52.583Z,14.70
2017-11-12T14:16:54.338Z,14.40
2017-11-12T14:21:56.041Z,15.37
2017-11-12T14:26:57.709Z,12.50
2017-11-12T14:31:59.389Z,9.60
2017-11-12T14:37:01.094Z,7.90
2017-11-12T14:42:02.839Z,5.13
2017-11-12T14:47:04.535Z,4.20
2017-11-12T14:52:06.202Z,4.73
2017-11-12T14:57:07.869Z,5.20
2017-11-12T15:02:09.571Z,7.47
2017-11-12T15:07:11.259Z,5.60
2017-11-12T15:12:12.931Z,5.80
2017-11-12T15:17:15.619Z,5.20
2017-11-12T15:22:17.291Z,5.60
2017-11-12T15:27:18.972Z,5.90
2017-11-12T15:32:20.651Z,6.53
2017-11-12T15:37:23.072Z,6.40
2017-11-12T15:42:25.489Z,6.50
2017-11-12T15:47:27.903Z,6.83
2017-11-12T15:52:30.335Z,7.70
2017-11-12T15:57:32.022Z,7.53
2017-11-12T16:02:34.457Z,7.53
2017-11-12T16:07:36.750Z,10.82
2017-11-12T16:12:43.891Z,8.93
2017-11-12T16:17:46.927Z,8.60
2017-11-12T16:22:48.665Z,10.10
2017-11-12T16:27:51.239Z,9.70
2017-11-12T16:32:53.658Z,10.17
2017-11-12T16:37:55.412Z,10.10
2017-11-12T16:42:57.133Z,11.13
2017-11-12T16:47:59.604Z,12.30
2017-11-12T16:53:01.351Z,11.90
2017-11-12T16:58:03.806Z,13.50
2017-11-12T17:03:06.491Z,16.67
2017-11-12T17:08:08.920Z,14.23
2017-11-12T17:13:10.660Z,15.50
2017-11-12T17:18:12.360Z,18.00
2017-11-12T17:23:14.035Z,20.20
2017-11-12T17:28:15.727Z,14.20
2017-11-12T17:33:17.436Z,15.20
2017-11-12T17:38:19.124Z,14.07
2017-11-12T17:43:20.803Z,14.60
2017-11-12T17:48:22.505Z,13.90
2017-11-12T17:53:24.226Z,14.20
2017-11-12T17:58:25.960Z,15.07
2017-11-12T18:03:27.672Z,15.00
2017-11-12T18:08:29.350Z,14.63
2017-11-12T18:13:31.175Z,17.70
2017-11-12T18:18:32.870Z,16.50
2017-11-12T18:23:35.313Z,19.43
2017-11-12T18:28:37.351Z,19.63
2017-11-12T18:33:39.021Z,19.93
2017-11-12T18:38:40.773Z,18.73
2017-11-12T18:43:42.639Z,19.77
2017-11-12T18:48:46.667Z,19.90
2017-11-12T18:53:48.791Z,19.47
2017-11-12T18:58:50.506Z,17.87
2017-11-12T19:03:58.696Z,19.70
2017-11-12T19:09:01.253Z,19.57
2017-11-12T19:14:03.214Z,18.10
2017-11-12T19:24:52.966Z,18.73
2017-11-12T19:29:56.512Z,19.63
2017-11-12T19:34:58.227Z,17.90
2017-11-12T19:40:00.008Z,17.30
2017-11-12T19:45:01.790Z,18.20
2017-11-12T19:50:03.579Z,19.20
2017-11-12T19:55:05.271Z,21.37
2017-11-12T20:00:07.010Z,20.30
2017-11-12T20:05:09.276Z,21.57
2017-11-12T20:10:11.458Z,21.80
2017-11-12T20:15:13.919Z,20.70
2017-11-12T20:20:16.441Z,22.57
2017-11-12T20:25:18.526Z,22.40
2017-11-12T20:30:20.352Z,23.87
2017-11-12T20:35:22.039Z,23.07
2017-11-12T20:40:23.953Z,23.00
2017-11-12T20:45:25.736Z,23.17
2017-11-12T20:50:27.539Z,22.47
2017-11-12T20:55:29.276Z,24.17
2017-11-12T21:00:32.990Z,23.97
2017-11-12T21:05:34.783Z,23.80
2017-11-12T21:10:36.607Z,24.73
2017-11-12T21:15:38.431Z,24.20
2017-11-12T21:20:45.146Z,23.30
2017-11-12T21:25:46.887Z,24.13
2017-11-12T21:30:52.155Z,24.20
2017-11-12T21:35:55.485Z,24.00
2017-11-12T21:40:58.040Z,23.63
2017-11-12T21:45:59.813Z,23.07
2017-11-12T21:51:02.293Z,23.03
2017-11-12T21:56:04.154Z,20.87
2017-11-12T22:01:05.952Z,21.53
2017-11-12T22:06:07.692Z,21.80
2017-11-12T22:11:09.387Z,22.30
2017-11-12T22:16:11.187Z,20.53
2017-11-12T22:21:12.908Z,21.17
2017-11-12T22:26:14.676Z,22.37
2017-11-12T22:31:16.374Z,22.10
2017-11-12T22:36:18.098Z,22.30
2017-11-12T22:41:19.803Z,22.80
2017-11-12T22:46:21.487Z,22.20
2017-11-12T22:51:23.196Z,22.80
2017-11-12T22:56:24.932Z,23.60
2017-11-12T23:01:26.664Z,23.77
2017-11-12T23:06:28.561Z,23.70
2017-11-12T23:11:30.394Z,22.70
2017-11-12T23:16:32.151Z,22.60
2017-11-12T23:21:33.881Z,23.60
2017-11-12T23:26:35.577Z,23.60
2017-11-12T23:31:37.280Z,20.57
2017-11-12T23:36:38.973Z,20.70
2017-11-12T23:41:40.678Z,18.63
2017-11-12T23:46:42.404Z,18.70
2017-11-12T23:51:44.840Z,18.00
2017-11-12T23:56:46.519Z,18.53
